Commit Graph

97 Commits

Author SHA1 Message Date
a84650bb9e feat: add ai cost tracking foundation 2026-07-31 16:24:35 +08:00
ec9f8a015a feat: soften quota messaging 2026-07-31 16:10:35 +08:00
4e872febd5 feat: expose knowledge type priority traces 2026-07-31 16:09:27 +08:00
429636f3e8 feat: add class share drafts 2026-07-31 16:07:18 +08:00
d8fde93b69 feat: add teacher help cards 2026-07-31 15:53:47 +08:00
79094d0832 feat: align agent preview user context 2026-07-31 15:48:40 +08:00
3e60a6da42 feat: add topic summaries and growth profiles 2026-07-31 15:34:03 +08:00
884dc765ad feat: add entitlement plans and topic sessions 2026-07-31 15:22:11 +08:00
ad2161497f feat: add question insight analytics 2026-07-31 11:39:59 +08:00
e426f12e22 fix: highlight full knowledge search terms 2026-07-30 17:14:51 +08:00
918ef5fa79 fix: speed up chat detail pagination 2026-07-30 15:21:26 +08:00
8e2dc1d781 fix: paginate chat detail messages 2026-07-30 15:09:05 +08:00
162658384f fix: deduplicate knowledge content search results 2026-07-30 14:45:20 +08:00
77a899e24c fix: align agent no-hit handling 2026-07-30 14:36:09 +08:00
d1f573108e feat: add knowledge content search 2026-07-30 11:02:04 +08:00
c2655361b5 feat: add agent response depth control 2026-07-20 11:36:18 +08:00
537978082a fix: preserve agent debug conversation context 2026-07-17 16:06:43 +08:00
cadf44e0b8 fix: allow direct knowledge deletion 2026-07-17 15:34:23 +08:00
821cb26930 feat: enforce knowledge type source hierarchy 2026-07-17 15:14:18 +08:00
d647a3d44b feat: apply knowledge type retrieval priority 2026-07-17 15:12:34 +08:00
c7bafda135 feat(agent): add debug output switches 2026-07-17 14:19:23 +08:00
a879dc2ff1 feat(agent): control reasoning visibility 2026-07-17 14:05:54 +08:00
bfaf2ebf67 feat(agent): stream admin debug preview 2026-07-17 13:47:05 +08:00
13fed0467a feat(chat): add configurable streaming output 2026-07-17 13:34:27 +08:00
f7076569a7 feat(knowledge): add batch synchronization 2026-07-17 13:20:41 +08:00
dde28aba83 fix(rag): route exercise titles to knowledge base 2026-07-17 12:31:56 +08:00
6f07c70f1f fix(rag): keep practice headings with details 2026-07-17 12:16:30 +08:00
e3634eb26c refactor(knowledge): keep latest version only 2026-07-16 18:24:49 +08:00
9ba8fb6e0c feat(knowledge): auto-publish successful syncs 2026-07-16 18:07:17 +08:00
921b56cfb9 fix(agent): keep response policy in managed prompt 2026-07-16 17:16:51 +08:00
1b5fcc4d52 fix(agent): enforce complete homework answers 2026-07-16 17:03:04 +08:00
6c02662d3b feat(agent): persist production generation settings 2026-07-16 16:07:11 +08:00
245b6b3eca fix(rag): recall complete course homework lists 2026-07-16 15:48:40 +08:00
56c9f2f359 fix(rag): retrieve complete course assignments 2026-07-15 22:09:52 +08:00
e4a391aa08 fix(agent): serialize retrieval trace responses 2026-07-13 19:37:12 +08:00
bbd19cf9ed fix: 修复会话上下文记忆链路 2026-07-13 15:43:29 +08:00
44ab895149 feat: add prompt history management 2026-07-13 14:06:45 +08:00
750a57a390 fix: invalidate agent cache on knowledge changes 2026-07-13 13:18:52 +08:00
00d53c2569 perf: paginate admin audit lists 2026-07-13 13:09:15 +08:00
0864f9305b fix: prevent agent debug from blocking chat 2026-07-13 12:27:07 +08:00
120fe185f9 fix: complete admin knowledge audit improvements 2026-07-13 11:40:34 +08:00
e337897b7a fix: 修复知识库唯一约束迁移兼容性 2026-07-12 15:31:17 +08:00
8266d845c0 fix: 补齐知识库元数据管理与生命周期校验 2026-07-12 15:30:23 +08:00
16fa9d06c2 chore: 完成知识库迁移与检索验证收口 2026-07-11 19:30:08 +08:00
872233adc6 feat: 完善知识库版本管理与检索审计后台 2026-07-11 19:22:18 +08:00
6cadca8c8e feat: 切换Agent自主知识工具检索链路 2026-07-11 19:14:17 +08:00
d2d43de6d3 feat: 实现知识同步审核发布生命周期 2026-07-11 19:04:16 +08:00
73fdfed0e5 feat: 建立知识版本与检索追踪数据模型 2026-07-11 18:59:29 +08:00
d0d25d9e17 fix: expand ai request log text fields 2026-07-10 18:46:41 +08:00
b3cb4a1ca9 fix: add chat session summary migration 2026-07-10 18:34:08 +08:00